Time;durP1;ratioP1;P1;durP2;ratioP2;P2;SDS_P1;SDS_P2;PMS_P1;PMS_P2;Temp;Humidity;BMP_temperature;BMP_pressure;BME280_temperature;BME280_humidity;BME280_pressure;Samples;Min_cycle;Max_cycle;Signal;HPM_P1;HPM_P2
2021/05/30 00:00:24;;;;;;;0.90;0.90;;;19.00;46.00;;;22.55;31.77;102553.22;5132485;28;20047;-63
2021/05/30 00:02:50;;;;;;;0.70;0.70;;;19.00;46.00;;;22.55;31.63;102558.56;5115634;28;20084;-63
2021/05/30 00:05:16;;;;;;;1.20;1.10;;;19.00;46.00;;;22.54;31.79;102556.84;5132390;28;20141;-63
2021/05/30 00:07:42;;;;;;;1.00;1.00;;;19.00;46.10;;;22.52;31.74;102556.03;5132782;28;20092;-63
2021/05/30 00:10:09;;;;;;;0.90;0.90;;;19.00;46.10;;;22.52;31.76;102554.25;5115787;28;20054;-63
2021/05/30 00:12:36;;;;;;;1.15;1.10;;;19.00;46.10;;;22.49;31.68;102546.38;5132730;27;20493;-63
2021/05/30 00:15:04;;;;;;;0.80;0.80;;;19.00;46.20;;;22.46;31.79;102545.63;5132029;28;20047;-63
2021/05/30 00:17:30;;;;;;;0.93;0.93;;;18.90;46.10;;;22.50;31.84;102555.22;5115209;28;20397;-63
2021/05/30 00:19:56;;;;;;;0.80;0.80;;;19.00;46.20;;;22.48;31.82;102549.94;5132231;28;20046;-63
2021/05/30 00:22:22;;;;;;;0.88;0.88;;;19.00;46.10;;;22.49;31.66;102550.84;5115222;28;20047;-63
2021/05/30 00:24:49;;;;;;;1.20;1.10;;;19.00;46.20;;;22.51;31.83;102552.50;5132830;28;20051;-63
2021/05/30 00:27:15;;;;;;;0.93;0.93;;;19.00;46.10;;;22.49;31.81;102557.03;5114320;28;20057;-63
2021/05/30 00:29:40;;;;;;;1.00;1.00;;;19.00;46.10;;;22.50;31.79;102556.13;5114675;28;20058;-63
2021/05/30 00:32:07;;;;;;;0.80;0.80;;;19.00;46.10;;;22.50;31.73;102563.22;5132227;28;20047;-63
2021/05/30 00:34:32;;;;;;;0.80;0.80;;;19.00;46.10;;;22.50;31.69;102557.88;5114712;28;20050;-63
2021/05/30 00:36:58;;;;;;;0.80;0.80;;;19.00;46.10;;;22.49;31.82;102554.38;5132055;28;20055;-63
2021/05/30 00:39:24;;;;;;;0.90;0.90;;;19.00;46.10;;;22.51;31.50;102557.81;5133242;27;20051;-63
2021/05/30 00:41:50;;;;;;;0.70;0.70;;;19.00;46.10;;;22.49;31.79;102550.84;5132162;28;20129;-63
2021/05/30 00:44:42;;;;;;;0.90;0.80;;;19.00;46.10;;;22.48;31.74;102551.75;5115301;28;20051;-63
2021/05/30 00:47:08;;;;;;;0.98;0.98;;;19.00;46.10;;;22.50;31.78;102560.56;5093480;28;20060;-64
2021/05/30 00:49:33;;;;;;;0.80;0.80;;;19.00;46.10;;;22.50;31.93;102557.88;5114888;28;20062;-63
2021/05/30 00:51:59;;;;;;;0.75;0.75;;;19.00;46.10;;;22.50;31.93;102555.22;5114530;28;20048;-63
2021/05/30 00:54:26;;;;;;;0.88;0.88;;;19.00;46.20;;;22.46;31.85;102545.63;5115128;28;20043;-63
2021/05/30 00:56:52;;;;;;;0.90;0.90;;;19.00;46.20;;;22.46;31.85;102545.63;5131752;28;20402;-63
2021/05/30 00:59:18;;;;;;;1.15;1.05;;;18.90;46.20;;;22.43;31.79;102545.75;5114498;28;20043;-63
2021/05/30 01:01:44;;;;;;;0.80;0.80;;;18.90;46.20;;;22.47;31.92;102558.00;5133040;27;20205;-63
2021/05/30 01:04:10;;;;;;;0.90;0.90;;;18.90;46.20;;;22.44;31.95;102547.50;5131582;28;20412;-63
2021/05/30 01:06:38;;;;;;;0.77;0.77;;;18.90;46.30;;;22.42;31.94;102549.34;5097871;28;20390;-63
2021/05/30 01:09:04;;;;;;;0.90;0.90;;;18.90;46.30;;;22.43;31.90;102551.09;5131607;28;20055;-63
2021/05/30 01:11:31;;;;;;;0.80;0.80;;;18.90;46.30;;;22.43;31.85;102546.63;5131504;28;20039;-63
2021/05/30 01:13:58;;;;;;;1.00;0.90;;;18.90;46.30;;;22.42;31.95;102549.34;5115017;28;20043;-63
2021/05/30 01:16:26;;;;;;;0.90;0.90;;;18.90;46.30;;;22.43;31.86;102546.63;5114335;28;20089;-63
2021/05/30 01:18:57;;;;;;;0.98;0.98;;;18.90;46.30;;;22.41;31.86;102539.63;5131459;28;20043;-63
2021/05/30 01:21:23;;;;;;;1.00;1.00;;;18.80;46.80;;;22.43;32.07;102548.41;5131646;28;20058;-63
2021/05/30 01:23:53;;;;;;;0.85;0.85;;;18.80;46.30;;;22.38;31.85;102540.59;5114652;28;20470;-63
2021/05/30 01:26:21;;;;;;;0.80;0.80;;;18.80;46.40;;;22.36;31.91;102546.00;5114445;28;20043;-63
2021/05/30 01:28:48;;;;;;;0.98;0.98;;;18.80;46.40;;;22.35;31.97;102538.06;5131979;28;20274;-63
2021/05/30 01:31:16;;;;;;;0.90;0.90;;;18.80;46.40;;;22.35;31.99;102546.94;5114201;28;20043;-63
2021/05/30 01:33:42;;;;;;;1.08;1.08;;;18.80;46.40;;;22.34;31.96;102547.88;5114183;28;20116;-63
2021/05/30 01:36:08;;;;;;;1.00;1.00;;;18.80;46.50;;;22.31;31.94;102548.00;5131281;28;20110;-63
2021/05/30 01:38:33;;;;;;;0.90;0.90;;;18.90;46.50;;;22.32;32.09;102549.75;5114257;28;20487;-63
2021/05/30 01:41:00;;;;;;;1.00;1.00;;;18.80;46.40;;;22.32;32.09;102549.75;5117218;28;20130;-63
2021/05/30 01:43:26;;;;;;;0.93;0.93;;;18.80;46.40;;;22.35;32.05;102554.06;5136069;27;20557;-63
2021/05/30 01:45:52;;;;;;;1.00;1.00;;;18.80;46.50;;;22.30;32.06;102548.94;5117986;28;20035;-63
2021/05/30 01:48:18;;;;;;;0.73;0.73;;;18.80;46.40;;;22.35;31.99;102559.38;5117516;28;20591;-63
2021/05/30 01:50:47;;;;;;;0.90;0.90;;;18.80;46.50;;;22.32;32.04;102551.50;5117715;28;20043;-63
2021/05/30 01:53:32;;;;;;;0.90;0.90;;;18.80;46.50;;;22.30;32.05;102543.59;5134660;28;20055;-63
2021/05/30 01:58:24;;;;;;;1.08;1.08;;;18.80;46.50;;;22.31;31.90;102549.78;5134292;28;20051;-63
2021/05/30 02:00:50;;;;;;;0.90;0.90;;;18.80;46.50;;;22.30;32.01;102554.28;5117198;28;20500;-63
2021/05/30 02:03:18;;;;;;;0.93;0.93;;;18.80;46.50;;;22.27;31.97;102557.03;5134396;28;20043;-63
2021/05/30 02:05:52;;;;;;;1.00;1.00;;;18.80;46.60;;;22.28;32.10;102564.09;5117248;28;20051;-63
2021/05/30 02:08:19;;;;;;;0.85;0.85;;;18.70;46.60;;;22.25;32.14;102553.53;5117257;28;20137;-63
2021/05/30 02:10:45;;;;;;;0.73;0.73;;;18.70;46.60;;;22.28;32.02;102552.56;5117447;28;20050;-63
2021/05/30 02:13:12;;;;;;;0.73;0.73;;;18.70;46.60;;;22.28;32.24;102558.78;5134247;28;20043;-63
2021/05/30 02:15:37;;;;;;;0.98;0.98;;;18.70;46.60;;;22.23;32.09;102554.53;5100420;28;20081;-63
2021/05/30 02:18:05;;;;;;;0.80;0.80;;;18.70;46.60;;;22.25;32.10;102558.84;5117198;28;20043;-63
2021/05/30 02:20:39;;;;;;;0.80;0.80;;;18.70;46.70;;;22.25;32.07;102558.84;5100370;28;20063;-63
2021/05/30 02:23:10;;;;;;;0.80;0.80;;;18.70;46.70;;;22.21;32.19;102559.94;5117353;28;20139;-63
2021/05/30 02:25:36;;;;;;;0.90;0.90;;;18.70;46.70;;;22.27;32.20;102561.47;5117019;28;20054;-63
2021/05/30 02:28:02;;;;;;;0.98;0.98;;;18.70;46.70;;;22.24;32.24;102557.13;5116567;28;20063;-63
2021/05/30 02:30:28;;;;;;;1.10;1.00;;;18.70;46.70;;;22.25;32.36;102560.66;5116844;28;20079;-63
2021/05/30 02:32:53;;;;;;;1.20;1.10;;;18.70;46.80;;;22.18;32.17;102544.91;5116877;28;20057;-63
2021/05/30 02:35:19;;;;;;;0.85;0.85;;;18.70;46.80;;;22.18;32.16;102554.72;5116757;28;20406;-64
2021/05/30 02:37:45;;;;;;;0.90;0.90;;;18.70;46.80;;;22.20;32.29;102560.84;5100229;28;20043;-63
2021/05/30 02:40:12;;;;;;;0.90;0.90;;;18.70;46.80;;;22.19;32.18;102561.78;5133847;28;20039;-63
2021/05/30 02:42:37;;;;;;;0.75;0.75;;;18.60;46.80;;;22.18;32.08;102555.56;5116399;28;20053;-63
2021/05/30 02:45:05;;;;;;;0.88;0.88;;;18.60;46.80;;;22.20;32.34;102563.50;5116484;28;20047;-63
2021/05/30 02:47:31;;;;;;;0.98;0.98;;;18.60;46.80;;;22.19;32.13;102564.47;5116509;28;20096;-63
2021/05/30 02:49:59;;;;;;;0.77;0.77;;;18.60;46.80;;;22.15;32.23;102555.72;5133433;27;20079;-63
2021/05/30 02:52:25;;;;;;;1.02;1.02;;;18.60;46.90;;;22.18;32.14;102557.38;5116538;28;20042;-63
2021/05/30 02:54:52;;;;;;;0.80;0.80;;;18.60;46.90;;;22.15;32.29;102557.50;5116285;28;20050;-63
2021/05/30 02:57:19;;;;;;;0.90;0.90;;;18.60;46.90;;;22.15;32.43;102563.72;5099302;28;20046;-63
2021/05/30 02:59:45;;;;;;;0.80;0.80;;;18.60;46.90;;;22.15;32.38;102565.50;5116370;28;20051;-63
2021/05/30 03:02:11;;;;;;;1.00;1.00;;;18.60;46.90;;;22.10;32.35;102555.03;5116626;28;20138;-63
2021/05/30 03:04:36;;;;;;;0.80;0.80;;;18.50;46.90;;;22.14;32.28;102564.63;5116629;28;20051;-63
2021/05/30 03:07:02;;;;;;;0.80;0.80;;;18.50;46.90;;;22.12;32.34;102557.63;5133428;28;20051;-63
2021/05/30 03:09:28;;;;;;;0.90;0.90;;;18.60;47.00;;;22.09;32.35;102552.44;5116042;28;20111;-63
2021/05/30 03:11:54;;;;;;;0.88;0.88;;;18.60;47.00;;;22.10;32.51;102557.72;5098893;28;20566;-63
2021/05/30 03:14:20;;;;;;;0.95;0.95;;;18.60;47.00;;;22.11;32.31;102556.75;5115914;28;20142;-63
2021/05/30 03:16:46;;;;;;;0.80;0.80;;;18.60;47.00;;;22.11;32.38;102550.56;5116320;28;20420;-63
2021/05/30 03:19:12;;;;;;;0.93;0.93;;;18.60;47.00;;;22.11;32.30;102550.56;5133376;28;20059;-63
2021/05/30 03:21:39;;;;;;;0.63;0.63;;;18.60;46.90;;;22.15;32.38;102557.50;5116002;28;20063;-63
2021/05/30 03:24:07;;;;;;;1.00;1.00;;;18.60;46.90;;;22.15;32.27;102547.72;5116034;28;20065;-63
2021/05/30 03:26:32;;;;;;;0.90;0.90;;;18.70;46.80;;;22.20;32.19;102551.06;5116206;28;20050;-63
2021/05/30 03:28:58;;;;;;;0.73;0.73;;;18.70;46.80;;;22.22;32.38;102553.69;5115508;28;20047;-63
2021/05/30 03:31:24;;;;;;;0.70;0.70;;;18.70;46.80;;;22.20;32.23;102548.41;5116122;28;20428;-63
2021/05/30 03:33:49;;;;;;;1.00;1.00;;;18.70;46.70;;;22.31;32.19;102555.13;5132983;28;20490;-63
2021/05/30 03:36:19;;;;;;;0.80;0.80;;;18.80;46.70;;;22.31;32.20;102545.31;5133102;28;20494;-62
2021/05/30 03:38:45;;;;;;;0.73;0.73;;;18.80;46.60;;;22.34;32.14;102542.53;5132887;28;20058;-64
2021/05/30 03:41:13;;;;;;;0.90;0.90;;;18.80;46.50;;;22.38;32.10;102544.13;5115631;28;20043;-63
2021/05/30 03:43:41;;;;;;;0.70;0.70;;;18.90;46.50;;;22.41;32.05;102547.63;5115982;28;20047;-63
2021/05/30 03:46:07;;;;;;;0.90;0.90;;;18.90;46.40;;;22.43;32.09;102543.94;5115644;28;20046;-63
2021/05/30 03:48:33;;;;;;;0.80;0.80;;;18.90;46.30;;;22.47;31.99;102547.34;5115848;28;20062;-63
2021/05/30 03:50:59;;;;;;;0.75;0.75;;;19.00;46.30;;;22.53;31.84;102552.44;5133036;28;20054;-63
2021/05/30 03:53:25;;;;;;;0.93;0.93;;;19.00;46.20;;;22.55;31.82;102550.56;5132979;28;20047;-63
2021/05/30 03:55:52;;;;;;;0.80;0.80;;;19.10;46.20;;;22.60;31.80;102556.56;5115348;28;20039;-63
2021/05/30 03:58:19;;;;;;;0.98;0.98;;;19.10;46.00;;;22.60;31.66;102542.38;5115384;28;20553;-63
2021/05/30 04:00:45;;;;;;;0.90;0.90;;;19.10;46.00;;;22.68;31.64;102549.13;5132551;28;20072;-62
2021/05/30 04:03:11;;;;;;;0.80;0.80;;;19.20;46.00;;;22.72;31.73;102561.41;5114369;28;20039;-62
2021/05/30 04:05:37;;;;;;;0.85;0.85;;;19.30;45.90;;;22.80;31.58;102553.06;5115821;28;20167;-63
2021/05/30 04:08:03;;;;;;;1.00;1.00;;;19.30;45.80;;;22.84;31.51;102553.81;5132462;28;20482;-63
2021/05/30 04:10:29;;;;;;;1.00;1.00;;;19.30;45.70;;;22.91;31.35;102553.47;5115629;28;20166;-63
2021/05/30 04:12:55;;;;;;;0.90;0.90;;;19.40;45.70;;;22.93;31.50;102551.59;5115642;28;20379;-62
2021/05/30 04:15:21;;;;;;;0.90;0.90;;;19.30;45.50;;;22.97;31.34;102552.34;5132896;28;20051;-63
2021/05/30 04:17:47;;;;;;;0.88;0.88;;;19.40;45.50;;;22.99;31.40;102547.81;5098209;28;20043;-62
2021/05/30 04:20:16;;;;;;;0.70;0.70;;;19.40;45.50;;;23.06;31.42;102559.06;5115293;28;20104;-63
2021/05/30 04:22:43;;;;;;;1.33;0.90;;;19.40;45.40;;;23.09;31.29;102546.50;5115305;28;20043;-62
2021/05/30 04:25:11;;;;;;;0.77;0.77;;;19.50;45.40;;;23.10;31.18;102548.25;5132547;28;20134;-63
2021/05/30 04:27:37;;;;;;;0.80;0.80;;;19.50;45.30;;;23.14;31.11;102543.63;5131879;28;20039;-62
2021/05/30 04:30:09;;;;;;;0.70;0.70;;;19.50;45.30;;;23.21;31.18;102557.56;5115058;28;20550;-63
2021/05/30 04:32:35;;;;;;;0.98;0.98;;;19.60;45.30;;;23.26;31.08;102559.06;5114996;28;20053;-63
2021/05/30 04:35:03;;;;;;;0.70;0.70;;;19.70;45.30;;;23.28;30.99;102561.69;5133327;28;20043;-62
2021/05/30 04:37:29;;;;;;;0.82;0.82;;;19.60;45.10;;;23.32;31.04;102557.91;5114915;28;20047;-62
2021/05/30 04:39:56;;;;;;;0.80;0.80;;;19.70;45.60;;;23.38;31.03;102556.78;5097920;28;20047;-62
2021/05/30 04:42:23;;;;;;;0.70;0.70;;;19.70;45.10;;;23.41;30.75;102556.66;5114869;28;20502;-62
2021/05/30 04:44:50;;;;;;;0.90;0.90;;;19.80;45.00;;;23.45;30.84;102553.75;5132287;28;20047;-62
2021/05/30 04:47:16;;;;;;;0.80;0.75;;;19.90;44.90;;;23.55;30.63;102562.22;5115091;28;20385;-62
2021/05/30 04:49:42;;;;;;;0.63;0.63;;;19.90;44.80;;;23.57;30.64;102556.81;5114669;28;20051;-62
2021/05/30 04:52:10;;;;;;;0.80;0.80;;;19.90;44.70;;;23.64;30.55;102555.59;5131801;28;20406;-62
2021/05/30 04:54:36;;;;;;;0.80;0.80;;;20.00;44.70;;;23.70;30.43;102562.44;5115059;28;20044;-62
2021/05/30 04:57:03;;;;;;;0.82;0.82;;;20.00;44.60;;;23.71;30.34;102557.03;5132328;28;20055;-62
2021/05/30 04:59:30;;;;;;;0.90;0.90;;;20.00;44.50;;;23.72;30.28;102555.22;5114389;28;20051;-62
2021/05/30 05:01:55;;;;;;;0.80;0.80;;;20.00;44.60;;;23.72;30.41;102561.44;5114446;28;20104;-62
2021/05/30 05:04:21;;;;;;;0.80;0.80;;;20.00;44.60;;;23.76;30.13;102562.19;5114447;28;20122;-62
2021/05/30 05:06:47;;;;;;;0.90;0.90;;;20.00;44.60;;;23.74;30.41;102564.91;5114408;28;20035;-62
2021/05/30 05:09:13;;;;;;;0.85;0.85;;;20.00;44.60;;;23.72;30.32;102563.25;5114925;28;20074;-62
2021/05/30 05:11:39;;;;;;;0.70;0.70;;;19.90;44.60;;;23.66;30.44;102561.72;5132060;28;20061;-62
2021/05/30 05:14:05;;;;;;;1.00;1.00;;;19.90;44.70;;;23.60;30.42;102552.19;5133626;27;20501;-62
2021/05/30 05:16:31;;;;;;;0.73;0.73;;;19.80;44.80;;;23.53;30.38;102556.09;5101039;28;20059;-62
2021/05/30 05:18:58;;;;;;;0.77;0.77;;;19.70;44.90;;;23.50;30.58;102556.22;5135083;28;20047;-62
2021/05/30 05:21:23;;;;;;;1.23;0.95;;;19.70;45.00;;;23.48;30.76;102560.78;5135347;28;20501;-62
2021/05/30 05:23:49;;;;;;;0.90;0.90;;;19.70;45.10;;;23.42;30.70;102559.25;5134942;28;20036;-62
2021/05/30 05:26:15;;;;;;;0.70;0.70;;;19.70;45.10;;;23.41;30.84;102556.66;5117964;28;20050;-62
2021/05/30 05:28:41;;;;;;;0.88;0.88;;;19.60;45.10;;;23.39;30.79;102561.19;5117758;28;20554;-63
2021/05/30 05:31:06;;;;;;;0.70;0.70;;;19.60;45.20;;;23.34;30.76;102557.84;5135009;28;20050;-62
2021/05/30 05:33:32;;;;;;;0.80;0.80;;;19.60;45.20;;;23.38;30.76;102567.47;5100639;28;20108;-62
2021/05/30 05:35:58;;;;;;;0.70;0.70;;;19.60;45.20;;;23.34;30.65;102558.75;5117498;28;20050;-62
2021/05/30 05:38:24;;;;;;;0.60;0.60;;;19.60;45.20;;;23.35;30.83;102562.28;5117717;28;20142;-62
2021/05/30 05:40:50;;;;;;;0.82;0.82;;;19.60;45.70;;;23.33;30.70;102554.31;5118072;28;20039;-62
2021/05/30 05:43:16;;;;;;;0.70;0.70;;;19.60;45.20;;;23.34;30.98;102560.53;5101193;28;20043;-62
2021/05/30 05:45:42;;;;;;;0.70;0.70;;;19.60;45.30;;;23.30;30.78;102551.78;5134975;28;20088;-62
2021/05/30 05:48:13;;;;;;;0.80;0.80;;;19.60;45.20;;;23.28;30.89;102557.19;5117615;28;20123;-62
2021/05/30 05:50:40;;;;;;;0.70;0.70;;;19.60;45.30;;;23.27;30.78;102554.59;5117996;28;20076;-62
2021/05/30 05:53:06;;;;;;;0.70;0.70;;;19.60;45.30;;;23.27;31.06;102562.59;5117530;28;20047;-62
2021/05/30 05:55:33;;;;;;;0.80;0.80;;;19.60;45.20;;;23.29;31.00;102561.63;5117870;28;20053;-62
2021/05/30 05:58:00;;;;;;;0.90;0.90;;;19.60;45.20;;;23.28;30.82;102557.19;5134505;28;20082;-62
2021/05/30 06:00:26;;;;;;;0.63;0.63;;;19.60;45.20;;;23.27;30.78;102567.94;5117973;28;20047;-62
2021/05/30 06:02:52;;;;;;;0.95;0.90;;;19.60;45.20;;;23.26;30.81;102552.88;5134526;28;20039;-62
2021/05/30 06:05:21;;;;;;;0.80;0.80;;;19.60;45.20;;;23.24;30.96;102560.09;5117162;28;20047;-62
2021/05/30 06:07:52;;;;;;;0.90;0.90;;;19.60;45.20;;;23.27;30.81;102554.59;5117714;28;20076;-62
2021/05/30 06:10:29;;;;;;;0.80;0.80;;;19.60;45.20;;;23.29;30.87;102566.09;5134278;28;20053;-62
2021/05/30 06:12:59;;;;;;;0.80;0.80;;;19.70;45.20;;;23.24;30.98;102550.28;5118459;28;20048;-63
2021/05/30 06:15:26;;;;;;;0.80;0.80;;;19.70;45.20;;;23.31;30.83;102567.75;5117401;28;20046;-62
2021/05/30 06:17:59;;;;;;;0.73;0.73;;;19.70;45.10;;;23.29;30.72;102560.75;5134114;28;20078;-62
2021/05/30 06:20:26;;;;;;;0.80;0.80;;;19.60;45.00;;;23.31;30.71;102557.06;5101222;28;20039;-62
2021/05/30 06:22:53;;;;;;;0.73;0.73;;;19.60;45.00;;;23.34;30.64;102564.09;5100002;28;20051;-62
2021/05/30 06:25:20;;;;;;;0.80;0.80;;;19.70;45.10;;;23.33;30.79;102562.34;5116756;28;20083;-62
2021/05/30 06:27:46;;;;;;;0.80;0.80;;;19.70;45.00;;;23.35;30.69;102560.47;5117099;28;20039;-62
2021/05/30 06:30:12;;;;;;;0.70;0.70;;;19.70;45.00;;;23.40;30.84;102563.78;5116994;28;20047;-62
2021/05/30 06:32:38;;;;;;;0.70;0.70;;;19.70;44.90;;;23.42;30.78;102569.94;5116844;28;20494;-62
2021/05/30 06:35:05;;;;;;;0.90;0.90;;;19.80;44.90;;;23.42;30.64;102564.59;5099757;28;20068;-62
2021/05/30 06:37:30;;;;;;;0.80;0.80;;;19.80;44.90;;;23.46;30.61;102565.31;5117060;28;20047;-62
2021/05/30 06:39:56;;;;;;;0.70;0.70;;;19.80;44.80;;;23.48;30.67;102566.13;5117285;28;20092;-62
2021/05/30 06:42:22;;;;;;;0.82;0.82;;;19.90;44.80;;;23.50;30.56;102566.91;5135137;27;20051;-62
2021/05/30 06:44:49;;;;;;;1.00;0.98;;;19.90;44.60;;;23.52;30.56;102564.16;5133734;28;20567;-62
2021/05/30 06:47:15;;;;;;;0.85;0.85;;;19.90;44.50;;;23.58;30.43;102567.41;5116522;28;20039;-62
2021/05/30 06:49:41;;;;;;;0.75;0.75;;;20.00;44.50;;;23.62;30.58;102569.03;5099337;28;20050;-62
2021/05/30 06:52:07;;;;;;;0.70;0.70;;;20.00;44.40;;;23.67;30.25;102572.34;5133601;28;20055;-62
2021/05/30 06:54:33;;;;;;;0.75;0.75;;;20.10;44.40;;;23.73;30.41;102570.31;5134716;27;20535;-62
2021/05/30 06:56:58;;;;;;;0.73;0.73;;;20.10;44.30;;;23.78;30.19;102577.16;5116501;28;20391;-62
2021/05/30 06:59:24;;;;;;;0.70;0.70;;;20.10;44.20;;;23.84;30.37;102570.72;5133445;28;20494;-62
2021/05/30 07:01:50;;;;;;;0.70;0.70;;;20.20;44.10;;;23.91;30.19;102573.97;5133818;28;20387;-62
2021/05/30 07:04:16;;;;;;;0.68;0.68;;;20.20;44.00;;;23.91;29.91;102557.94;5133384;28;20456;-62
2021/05/30 07:06:42;;;;;;;0.82;0.82;;;20.30;43.90;;;23.98;29.90;102560.22;5116594;28;20077;-62
2021/05/30 07:09:07;;;;;;;0.70;0.70;;;20.30;43.90;;;24.04;29.93;102572.44;5116322;28;20047;-63
2021/05/30 07:11:34;;;;;;;0.70;0.70;;;20.40;43.80;;;24.11;30.02;102563.19;5116120;28;20505;-62
2021/05/30 07:14:00;;;;;;;0.77;0.77;;;20.50;43.60;;;24.18;29.85;102563.75;5116158;28;20100;-62
2021/05/30 07:16:26;;;;;;;0.73;0.73;;;20.50;43.40;;;24.23;29.70;102561.72;5133832;28;20429;-63
2021/05/30 07:18:51;;;;;;;0.60;0.60;;;20.50;43.40;;;24.29;29.49;102560.53;5133158;28;20042;-63
2021/05/30 07:21:17;;;;;;;0.73;0.73;;;20.60;43.30;;;24.30;29.62;102559.59;5116119;28;20054;-63
2021/05/30 07:23:43;;;;;;;0.70;0.70;;;20.60;43.20;;;24.36;29.59;102553.97;5116289;28;20039;-63
2021/05/30 07:26:09;;;;;;;0.85;0.85;;;20.60;43.10;;;24.37;29.45;102556.56;5133073;28;20035;-63
2021/05/30 07:28:35;;;;;;;0.70;0.70;;;20.70;43.10;;;24.40;29.47;102551.03;5116182;28;20150;-63
2021/05/30 07:31:01;;;;;;;0.70;0.70;;;20.70;43.10;;;24.42;29.53;102551.84;5098829;28;20505;-63
2021/05/30 07:33:27;;;;;;;0.70;0.63;;;20.80;43.00;;;24.50;29.38;102558.63;5099223;28;20047;-62
2021/05/30 07:35:53;;;;;;;1.10;0.70;;;20.80;42.90;;;24.52;29.37;102557.56;5115956;27;20050;-62
2021/05/30 07:38:20;;;;;;;0.80;0.80;;;20.80;42.90;;;24.57;29.26;102557.38;5115939;28;20057;-62
2021/05/30 07:40:46;;;;;;;0.80;0.80;;;20.80;42.80;;;24.63;29.13;102554.41;5098793;28;20100;-62
2021/05/30 07:43:12;;;;;;;0.73;0.73;;;20.90;42.70;;;24.69;29.01;102554.09;5132966;28;20043;-63
2021/05/30 07:45:38;;;;;;;0.65;0.65;;;21.00;42.60;;;24.75;29.25;102552.91;5115854;28;20051;-62
2021/05/30 07:48:04;;;;;;;0.70;0.70;;;21.00;42.50;;;24.80;28.95;102563.38;5115694;28;20070;-62
2021/05/30 07:50:31;;;;;;;0.70;0.70;;;21.00;42.40;;;24.83;28.88;102572.13;5132762;27;20047;-62
2021/05/30 07:52:56;;;;;;;0.70;0.70;;;21.00;42.40;;;24.81;28.87;102574.00;5133080;28;20053;-62
2021/05/30 07:55:22;;;;;;;0.70;0.70;;;21.00;42.40;;;24.84;28.92;102573.84;5115777;28;20059;-63
2021/05/30 07:57:48;;;;;;;0.63;0.63;;;21.10;42.40;;;24.89;28.73;102573.59;5132401;28;20050;-63
2021/05/30 08:00:17;;;;;;;0.70;0.70;;;21.10;42.30;;;24.89;28.65;102573.59;5132618;28;20054;-64
2021/05/30 08:02:44;;;;;;;0.60;0.60;;;21.10;42.30;;;24.91;28.85;102571.72;5132598;28;20054;-64
2021/05/30 08:05:14;;;;;;;0.90;0.90;;;21.10;42.20;;;24.99;28.86;102576.66;5115374;28;20047;-62
2021/05/30 08:07:39;;;;;;;0.65;0.65;;;21.20;42.20;;;25.03;28.71;102576.44;5098720;28;20147;-62
2021/05/30 08:10:07;;;;;;;0.82;0.82;;;21.20;42.10;;;25.05;28.53;102576.34;5115541;28;20493;-62
2021/05/30 08:12:32;;;;;;;0.75;0.75;;;21.10;42.00;;;25.06;28.56;102580.75;5132296;28;20043;-61
2021/05/30 08:14:58;;;;;;;0.60;0.60;;;21.20;42.10;;;25.07;28.52;102577.97;5098205;28;20050;-61
2021/05/30 08:17:24;;;;;;;0.60;0.60;;;21.20;42.00;;;25.07;28.60;102577.13;5132301;28;20478;-61
2021/05/30 08:19:51;;;;;;;0.60;0.60;;;21.20;42.00;;;25.09;28.53;102577.91;5115016;28;20105;-61
2021/05/30 08:22:20;;;;;;;0.75;0.75;;;21.20;42.00;;;25.09;28.56;102569.88;5115498;28;20367;-62
2021/05/30 08:24:47;;;;;;;0.90;0.90;;;21.20;42.00;;;25.11;28.48;102565.34;5115591;28;20055;-62
2021/05/30 08:27:15;;;;;;;0.68;0.68;;;21.20;41.90;;;25.10;28.45;102568.94;5115297;28;20543;-64
2021/05/30 08:29:41;;;;;;;0.52;0.52;;;21.20;42.00;;;25.14;28.27;102573.19;5131964;27;20150;-62
2021/05/30 08:32:09;;;;;;;0.70;0.70;;;21.20;41.90;;;25.11;28.42;102571.53;5132193;28;20126;-64
2021/05/30 08:34:36;;;;;;;0.60;0.60;;;21.20;42.00;;;25.11;28.32;102574.22;5114810;28;20043;-62
2021/05/30 08:37:01;;;;;;;0.70;0.70;;;21.20;42.00;;;25.13;28.32;102568.78;5132005;28;20051;-61
2021/05/30 08:39:27;;;;;;;0.65;0.65;;;21.20;42.00;;;25.14;28.30;102570.50;5115116;28;20047;-61
2021/05/30 08:41:53;;;;;;;0.70;0.70;;;21.20;42.00;;;25.09;28.34;102568.09;5114826;28;20123;-61
2021/05/30 08:44:19;;;;;;;0.60;0.60;;;21.20;42.00;;;25.10;28.41;102569.81;5114868;28;20051;-61
2021/05/30 08:46:45;;;;;;;0.80;0.80;;;21.20;42.00;;;25.11;28.29;102571.53;5114725;28;20046;-60
2021/05/30 08:49:10;;;;;;;0.65;0.65;;;21.20;42.00;;;25.09;28.40;102570.75;5100189;28;20051;-61
2021/05/30 08:51:39;;;;;;;0.73;0.73;;;21.20;42.00;;;25.07;28.31;102566.44;5135589;28;20180;-62
2021/05/30 08:54:14;;;;;;;0.70;0.70;;;21.20;42.00;;;25.08;28.43;102578.88;5101382;28;20542;-61
2021/05/30 08:56:42;;;;;;;0.70;0.70;;;21.20;42.00;;;25.06;28.42;102578.94;5118386;28;20043;-61
2021/05/30 08:59:27;;;;;;;1.25;0.80;;;21.20;42.00;;;25.03;28.46;102572.91;5101253;28;20047;-61
2021/05/30 09:01:55;;;;;;;0.60;0.60;;;21.20;42.00;;;25.02;28.33;102566.66;5118499;28;20049;-61
2021/05/30 09:04:35;;;;;;;0.90;0.90;;;21.10;42.00;;;25.00;28.56;102573.06;5101236;28;20039;-61
2021/05/30 09:07:01;;;;;;;0.70;0.70;;;21.10;42.10;;;24.97;28.50;102574.06;5118069;28;20487;-61
2021/05/30 09:09:46;;;;;;;0.93;0.90;;;21.10;42.10;;;24.94;28.54;102574.22;5118028;28;20043;-61
2021/05/30 09:12:25;;;;;;;0.80;0.80;;;21.10;42.10;;;24.94;28.58;102580.47;5135475;28;20066;-61
2021/05/30 09:14:54;;;;;;;0.70;0.70;;;21.10;42.20;;;24.91;28.44;102577.09;5135258;28;20076;-62
2021/05/30 09:17:25;;;;;;;0.60;0.60;;;21.10;42.20;;;24.89;28.48;102581.63;5118821;28;20137;-62
2021/05/30 09:19:58;;;;;;;0.60;0.60;;;21.10;42.20;;;24.87;28.49;102568.31;5136550;27;20043;-62
2021/05/30 09:22:43;;;;;;;0.80;0.80;;;21.10;42.20;;;24.86;28.55;102571.97;5135312;28;20411;-62
2021/05/30 09:25:11;;;;;;;0.75;0.75;;;21.10;42.20;;;24.85;28.50;102572.91;5136644;27;20063;-62
2021/05/30 09:27:48;;;;;;;0.68;0.68;;;21.00;42.20;;;24.78;28.62;102569.66;5136595;27;20427;-62
2021/05/30 09:30:19;;;;;;;1.00;1.00;;;21.00;42.30;;;24.80;28.70;102566.91;5118248;28;20100;-62
2021/05/30 09:32:57;;;;;;;0.70;0.70;;;21.00;42.30;;;24.79;28.67;102567.84;5113939;28;20078;-62
2021/05/30 09:35:27;;;;;;;0.88;0.70;;;21.00;42.30;;;24.74;28.90;102562.75;5136068;28;20058;-61
2021/05/30 09:38:06;;;;;;;0.70;0.70;;;21.00;42.30;;;24.74;28.67;102561.88;5117562;28;20047;-61
2021/05/30 09:40:41;;;;;;;0.70;0.70;;;21.00;42.30;;;24.75;28.74;102566.28;5134470;27;20051;-62
2021/05/30 09:43:14;;;;;;;0.70;0.70;;;21.00;42.30;;;24.76;28.62;102562.69;5135223;28;20065;-62
2021/05/30 09:45:55;;;;;;;0.60;0.60;;;21.00;42.20;;;24.72;28.74;102553.94;5117888;28;20111;-62
2021/05/30 09:48:21;;;;;;;0.60;0.60;;;21.10;42.30;;;24.78;28.68;102561.66;5117510;28;20043;-62
2021/05/30 09:51:04;;;;;;;0.70;0.70;;;21.00;42.20;;;24.77;28.67;102559.03;5117705;28;20555;-62
2021/05/30 09:53:39;;;;;;;0.65;0.65;;;21.00;42.20;;;24.76;28.90;102566.22;5102969;28;20428;-62
2021/05/30 09:56:05;;;;;;;0.75;0.75;;;21.00;42.20;;;24.77;28.58;102564.41;5134701;28;20059;-62
2021/05/30 09:58:31;;;;;;;0.68;0.68;;;21.10;42.30;;;24.78;28.55;102561.66;5134303;28;20047;-62
2021/05/30 10:01:04;;;;;;;0.70;0.70;;;21.10;42.20;;;24.78;28.57;102564.31;5133320;27;20061;-62
2021/05/30 10:03:30;;;;;;;0.60;0.60;;;21.10;42.20;;;24.80;28.67;102568.75;5117246;28;20043;-62
2021/05/30 10:05:56;;;;;;;0.60;0.60;;;21.10;42.20;;;24.77;28.75;102561.72;5117668;28;20047;-62
2021/05/30 10:08:25;;;;;;;0.60;0.60;;;21.10;42.40;;;24.83;28.71;102565.91;5134408;28;20074;-62
2021/05/30 10:10:51;;;;;;;0.60;0.60;;;21.10;42.10;;;24.83;28.78;102563.22;5117666;28;20058;-63
2021/05/30 10:13:17;;;;;;;0.80;0.80;;;21.10;42.10;;;24.82;28.71;102562.34;5117406;28;20441;-62
2021/05/30 10:15:43;;;;;;;0.50;0.50;;;21.10;42.10;;;24.82;28.66;102559.66;5134365;28;20043;-63